Time;durP1;ratioP1;P1;durP2;ratioP2;P2;SDS_P1;SDS_P2;PMS_P1;PMS_P2;Temp;Humidity;BMP_temperature;BMP_pressure;BME280_temperature;BME280_humidity;BME280_pressure;Samples;Min_cycle;Max_cycle;Signal;HPM_P1;HPM_P2
2022/05/31 00:00:51;;;;;;;;;;;;;;;15.32;60.70;99535.66;4343536;32;33285;-86
2022/05/31 00:03:20;;;;;;;;;;;;;;;15.21;61.10;99544.78;4336377;33;34242;-85
2022/05/31 00:05:51;;;;;;;;;;;;;;;15.24;60.83;99537.69;4340690;32;32973;-86
2022/05/31 00:08:19;;;;;;;;;;;;;;;15.19;60.85;99534.38;4357570;32;34555;-86
2022/05/31 00:10:48;;;;;;;;;;;;;;;15.16;60.63;99524.03;4352144;32;34406;-86
2022/05/31 00:13:16;;;;;;;;;;;;;;;15.09;60.76;99522.53;4341016;32;34234;-85
2022/05/31 00:15:46;;;;;;;;;;;;;;;14.98;61.13;99516.81;4341030;33;32947;-86
2022/05/31 00:18:14;;;;;;;;;;;;;;;15.04;60.88;99525.31;4354242;32;33656;-86
2022/05/31 00:20:42;;;;;;;;;;;;;;;15.05;60.91;99532.25;4355567;32;34704;-86
2022/05/31 00:23:10;;;;;;;;;;;;;;;15.14;60.58;99531.06;4360720;32;34111;-87
2022/05/31 00:25:39;;;;;;;;;;;;;;;14.94;61.31;99535.22;4341074;33;32735;-86
2022/05/31 00:28:07;;;;;;;;;;;;;;;14.87;61.72;99532.88;4346366;32;33624;-86
2022/05/31 00:30:36;;;;;;;;;;;;;;;15.03;60.97;99539.28;4356255;32;34321;-86
2022/05/31 00:33:06;;;;;;;;;;;;;;;15.00;61.02;99539.38;4355590;32;34617;-86
2022/05/31 00:35:36;;;;;;;;;;;;;;;14.83;61.72;99542.53;4361767;32;33128;-86
2022/05/31 00:38:05;;;;;;;;;;;;;;;14.86;61.70;99552.03;4347634;32;33720;-85
2022/05/31 00:40:33;;;;;;;;;;;;;;;14.88;61.59;99543.28;4346780;32;35060;-86
2022/05/31 00:43:02;;;;;;;;;;;;;;;14.78;61.97;99546.22;4355898;32;33856;-86
2022/05/31 00:45:35;;;;;;;;;;;;;;;14.63;62.59;99551.03;4354904;32;33541;-86
2022/05/31 00:48:06;;;;;;;;;;;;;;;14.65;62.36;99556.22;4345738;32;34051;-86
2022/05/31 00:50:36;;;;;;;;;;;;;;;14.72;61.82;99552.50;4352434;32;35258;-85
2022/05/31 00:53:06;;;;;;;;;;;;;;;14.72;61.90;99555.97;4351273;32;35354;-85
2022/05/31 00:55:36;;;;;;;;;;;;;;;14.66;61.81;99565.75;4353161;32;33673;-86
2022/05/31 00:58:07;;;;;;;;;;;;;;;14.53;62.42;99560.03;4353570;32;34457;-87
2022/05/31 01:00:36;;;;;;;;;;;;;;;14.65;61.96;99564.91;4348780;32;33773;-87
2022/05/31 01:03:06;;;;;;;;;;;;;;;14.52;62.26;99567.03;4355483;32;34157;-85
2022/05/31 01:05:35;;;;;;;;;;;;;;;14.62;62.38;99564.16;4357637;32;33818;-86
2022/05/31 01:08:03;;;;;;;;;;;;;;;14.65;62.08;99564.06;4347591;32;34543;-86
2022/05/31 01:10:34;;;;;;;;;;;;;;;14.70;62.31;99573.44;4338741;33;34820;-86
2022/05/31 01:13:04;;;;;;;;;;;;;;;14.51;62.94;99567.91;4344441;32;33113;-86
2022/05/31 01:15:35;;;;;;;;;;;;;;;14.43;63.41;99566.44;4353717;32;33524;-85
2022/05/31 01:18:20;;;;;;;;;;;;;;;14.57;62.90;99566.91;4355198;32;34027;-86
2022/05/31 01:20:55;;;;;;;;;;;;;;;14.52;62.98;99568.75;4347010;32;35397;-86
2022/05/31 01:23:25;;;;;;;;;;;;;;;14.51;62.89;99574.87;4342528;32;33539;-86
2022/05/31 01:25:59;;;;;;;;;;;;;;;14.49;62.91;99579.28;4348004;33;33393;-86
2022/05/31 01:28:32;;;;;;;;;;;;;;;14.51;62.97;99580.09;4349793;32;34561;-85
2022/05/31 01:31:01;;;;;;;;;;;;;;;14.50;63.06;99581.87;4357515;32;34329;-85
2022/05/31 01:33:30;;;;;;;;;;;;;;;14.19;64.29;99587.16;4357194;32;34158;-85
2022/05/31 01:36:01;;;;;;;;;;;;;;;14.40;63.98;99585.66;4356233;32;31695;-86
2022/05/31 01:38:30;;;;;;;;;;;;;;;14.28;64.38;99583.44;4350307;32;34510;-87
2022/05/31 01:41:00;;;;;;;;;;;;;;;14.39;63.72;99586.56;4344118;33;34198;-86
2022/05/31 01:43:31;;;;;;;;;;;;;;;14.30;63.92;99592.03;4339000;33;34267;-86
2022/05/31 01:46:00;;;;;;;;;;;;;;;14.35;63.78;99584.94;4340349;33;32850;-86
2022/05/31 01:48:28;;;;;;;;;;;;;;;14.46;63.65;99593.28;4344889;32;33296;-86
2022/05/31 01:50:57;;;;;;;;;;;;;;;14.52;63.19;99592.25;4340180;33;33724;-86
2022/05/31 01:53:27;;;;;;;;;;;;;;;14.47;63.53;99594.12;4347081;33;33559;-87
2022/05/31 01:55:55;;;;;;;;;;;;;;;14.31;63.59;99593.78;4343821;32;33486;-86
2022/05/31 01:58:24;;;;;;;;;;;;;;;14.51;63.32;99590.53;4357256;32;34841;-85
2022/05/31 02:00:53;;;;;;;;;;;;;;;14.31;63.72;99593.78;4356628;32;34229;-86
2022/05/31 02:03:22;;;;;;;;;;;;;;;14.47;62.93;99596.75;4355058;32;34603;-85
2022/05/31 02:05:51;;;;;;;;;;;;;;;14.23;63.85;99603.56;4360336;32;32798;-86
2022/05/31 02:08:20;;;;;;;;;;;;;;;14.34;63.25;99598.88;4342435;33;34343;-86
2022/05/31 02:10:51;;;;;;;;;;;;;;;14.27;63.33;99599.97;4342325;33;34156;-85
2022/05/31 02:13:19;;;;;;;;;;;;;;;14.29;63.02;99599.03;4342264;33;33768;-86
2022/05/31 02:15:48;;;;;;;;;;;;;;;14.40;62.46;99603.06;4342284;32;33133;-86
2022/05/31 02:18:20;;;;;;;;;;;;;;;14.39;62.38;99597.00;4351257;32;32466;-86
2022/05/31 02:20:49;;;;;;;;;;;;;;;14.29;62.46;99603.41;4355721;32;34142;-86
2022/05/31 02:23:18;;;;;;;;;;;;;;;14.12;63.00;99605.66;4346799;32;33013;-86
2022/05/31 02:25:46;;;;;;;;;;;;;;;14.22;62.49;99607.09;4355338;32;33417;-86
2022/05/31 02:28:18;;;;;;;;;;;;;;;14.22;62.14;99602.72;4353307;32;32828;-86
2022/05/31 02:30:50;;;;;;;;;;;;;;;14.07;62.65;99601.41;4357635;32;33591;-86
2022/05/31 02:33:18;;;;;;;;;;;;;;;14.11;62.42;99602.19;4362705;32;34420;-86
2022/05/31 02:35:47;;;;;;;;;;;;;;;14.14;62.23;99603.84;4357280;32;33381;-86
2022/05/31 02:38:15;;;;;;;;;;;;;;;14.27;61.62;99599.97;4357111;32;32600;-85
2022/05/31 02:40:43;;;;;;;;;;;;;;;14.09;62.33;99604.84;4355662;32;33464;-86
2022/05/31 02:43:12;;;;;;;;;;;;;;;14.06;62.41;99607.53;4356995;32;33673;-86
2022/05/31 02:45:42;;;;;;;;;;;;;;;14.08;62.33;99610.09;4362748;32;33548;-86
2022/05/31 02:48:11;;;;;;;;;;;;;;;14.03;62.59;99617.19;4343287;32;34522;-85
2022/05/31 02:50:39;;;;;;;;;;;;;;;13.85;63.40;99613.37;4341907;32;33580;-85
2022/05/31 02:53:08;;;;;;;;;;;;;;;13.94;63.13;99610.50;4348439;32;33840;-85
2022/05/31 02:55:36;;;;;;;;;;;;;;;14.09;62.93;99610.06;4357135;32;34011;-85
2022/05/31 02:58:09;;;;;;;;;;;;;;;14.05;63.48;99610.19;4362171;32;33286;-86
2022/05/31 03:00:40;;;;;;;;;;;;;;;14.00;63.96;99615.53;4357330;32;33121;-86
2022/05/31 03:03:18;;;;;;;;;;;;;;;13.97;64.23;99609.56;4357453;32;34075;-86
2022/05/31 03:05:50;;;;;;;;;;;;;;;14.02;64.00;99611.13;4357261;32;31772;-86
2022/05/31 03:08:20;;;;;;;;;;;;;;;14.02;64.13;99605.91;4356910;32;33715;-85
2022/05/31 03:10:49;;;;;;;;;;;;;;;13.98;64.28;99604.28;4357178;32;34239;-85
2022/05/31 03:13:18;;;;;;;;;;;;;;;13.90;64.51;99605.41;4357458;32;34197;-86
2022/05/31 03:15:47;;;;;;;;;;;;;;;14.13;63.54;99607.34;4346337;32;33091;-85
2022/05/31 03:18:17;;;;;;;;;;;;;;;14.21;63.61;99610.59;4340487;33;32103;-86
2022/05/31 03:20:50;;;;;;;;;;;;;;;14.16;63.67;99607.25;4342005;33;34220;-86
2022/05/31 03:23:20;;;;;;;;;;;;;;;14.14;63.76;99606.47;4341179;33;34627;-85
2022/05/31 03:25:49;;;;;;;;;;;;;;;13.96;64.51;99605.22;4347580;32;33462;-86
2022/05/31 03:28:17;;;;;;;;;;;;;;;14.06;64.23;99607.53;4348049;32;34567;-86
2022/05/31 03:30:45;;;;;;;;;;;;;;;14.13;64.37;99600.38;4356375;32;34357;-86
2022/05/31 03:33:14;;;;;;;;;;;;;;;14.18;64.35;99601.12;4356794;32;34617;-86
2022/05/31 03:35:43;;;;;;;;;;;;;;;14.27;64.19;99607.81;4356181;32;32807;-86
2022/05/31 03:38:13;;;;;;;;;;;;;;;14.30;63.95;99605.09;4361941;32;34095;-85
2022/05/31 03:43:36;;;;;;;;;;;;;;;14.19;64.17;99615.00;4349176;32;33715;-87
2022/05/31 03:46:10;;;;;;;;;;;;;;;14.38;63.72;99607.50;4348024;32;31836;-85
2022/05/31 03:48:40;;;;;;;;;;;;;;;14.56;63.04;99611.31;4356577;32;34356;-87
2022/05/31 03:51:09;;;;;;;;;;;;;;;14.61;62.96;99612.03;4356549;32;34312;-85
2022/05/31 03:53:39;;;;;;;;;;;;;;;14.61;63.30;99614.66;4357962;32;34710;-86
2022/05/31 03:56:09;;;;;;;;;;;;;;;14.66;63.07;99610.97;4361336;32;32847;-85
2022/05/31 03:58:38;;;;;;;;;;;;;;;14.79;62.85;99611.47;4341531;33;34170;-86
2022/05/31 04:01:07;;;;;;;;;;;;;;;14.65;63.50;99611.91;4352574;32;33058;-85
2022/05/31 04:03:36;;;;;;;;;;;;;;;14.81;63.13;99627.94;4341703;33;34728;-85
2022/05/31 04:06:05;;;;;;;;;;;;;;;14.93;62.97;99618.84;4356144;32;33426;-86
2022/05/31 04:08:34;;;;;;;;;;;;;;;14.86;63.27;99631.28;4346946;33;34227;-86
2022/05/31 04:11:06;;;;;;;;;;;;;;;14.77;63.62;99631.56;4355342;32;34401;-85
2022/05/31 04:13:35;;;;;;;;;;;;;;;15.03;62.88;99635.06;4355951;32;34170;-85
2022/05/31 04:16:10;;;;;;;;;;;;;;;15.04;63.20;99642.03;4355972;32;33274;-86
2022/05/31 04:18:39;;;;;;;;;;;;;;;15.08;63.38;99631.44;4354248;32;33295;-86
2022/05/31 04:21:08;;;;;;;;;;;;;;;15.24;63.08;99629.16;4361070;32;34849;-85
2022/05/31 04:26:27;;;;;;;;;;;;;;;15.45;62.85;99631.97;4353844;32;31273;-86
2022/05/31 04:28:57;;;;;;;;;;;;;;;15.58;62.48;99625.38;4345504;32;32734;-85
2022/05/31 04:31:28;;;;;;;;;;;;;;;15.81;61.69;99626.41;4349510;32;33233;-86
2022/05/31 04:33:59;;;;;;;;;;;;;;;16.10;61.01;99622.72;4355757;32;34179;-86
2022/05/31 04:36:28;;;;;;;;;;;;;;;16.84;58.63;99623.38;4361529;32;33247;-87
2022/05/31 04:38:56;;;;;;;;;;;;;;;17.70;57.33;99630.28;4350618;32;33720;-87
2022/05/31 04:41:25;;;;;;;;;;;;;;;18.71;52.46;99617.84;4357999;32;33781;-85
2022/05/31 04:43:56;;;;;;;;;;;;;;;19.25;50.63;99620.47;4354515;32;34598;-85
2022/05/31 04:46:26;;;;;;;;;;;;;;;19.52;50.16;99622.66;4343208;32;32562;-85
2022/05/31 04:48:57;;;;;;;;;;;;;;;20.12;48.10;99615.13;4348363;32;34821;-86
2022/05/31 04:51:27;;;;;;;;;;;;;;;20.89;46.39;99619.69;4363457;32;34239;-86
2022/05/31 04:53:57;;;;;;;;;;;;;;;21.64;44.41;99619.75;4351790;32;34294;-86
2022/05/31 04:56:27;;;;;;;;;;;;;;;22.11;43.74;99618.66;4352530;32;31553;-87
2022/05/31 04:58:58;;;;;;;;;;;;;;;22.61;42.46;99620.84;4357910;32;33688;-86
2022/05/31 05:01:27;;;;;;;;;;;;;;;22.98;41.09;99609.63;4359039;32;33684;-86
2022/05/31 05:03:56;;;;;;;;;;;;;;;23.07;41.56;99612.59;4361960;32;34900;-86
2022/05/31 05:06:32;;;;;;;;;;;;;;;23.21;41.29;99616.03;4357770;32;34074;-87
2022/05/31 05:09:03;;;;;;;;;;;;;;;23.49;39.50;99619.47;4356161;32;33669;-86
2022/05/31 05:11:32;;;;;;;;;;;;;;;23.55;39.58;99613.75;4357688;32;34988;-86
2022/05/31 05:14:04;;;;;;;;;;;;;;;23.34;39.96;99617.84;4357407;32;33847;-86
2022/05/31 05:16:35;;;;;;;;;;;;;;;22.75;40.75;99620.81;4357629;32;31906;-87
2022/05/31 05:19:04;;;;;;;;;;;;;;;22.47;41.76;99622.59;4363330;32;34110;-86
2022/05/31 05:21:33;;;;;;;;;;;;;;;22.72;41.74;99621.03;4347130;32;34190;-86
2022/05/31 05:24:02;;;;;;;;;;;;;;;22.86;41.44;99615.69;4342831;33;33920;-87
2022/05/31 05:26:31;;;;;;;;;;;;;;;22.85;42.07;99621.06;4343061;32;33309;-87
2022/05/31 05:31:53;;;;;;;;;;;;;;;22.88;42.42;99632.31;4347359;32;34246;-86
2022/05/31 05:34:27;;;;;;;;;;;;;;;22.92;42.26;99625.84;4348508;33;34312;-87
2022/05/31 05:36:56;;;;;;;;;;;;;;;22.89;41.84;99625.22;4342675;33;33441;-87
2022/05/31 05:39:24;;;;;;;;;;;;;;;22.93;41.95;99627.56;4342721;33;34898;-86
2022/05/31 05:41:55;;;;;;;;;;;;;;;22.87;41.19;99622.66;4364346;32;33713;-86
2022/05/31 05:44:28;;;;;;;;;;;;;;;22.76;42.20;99622.50;4343643;32;34841;-87
2022/05/31 05:46:58;;;;;;;;;;;;;;;22.72;42.22;99628.97;4354579;32;34032;-87
2022/05/31 05:49:27;;;;;;;;;;;;;;;22.95;42.41;99627.44;4351252;32;35032;-87
2022/05/31 05:51:57;;;;;;;;;;;;;;;22.93;42.74;99630.22;4355905;32;34919;-87
2022/05/31 05:54:29;;;;;;;;;;;;;;;22.75;43.46;99626.94;4356773;32;32683;-87
2022/05/31 05:57:04;;;;;;;;;;;;;;;22.41;43.59;99636.19;4355132;32;31780;-87
2022/05/31 05:59:39;;;;;;;;;;;;;;;22.72;43.09;99631.59;4354715;32;34050;-87
2022/05/31 06:02:15;;;;;;;;;;;;;;;22.51;43.05;99639.94;4362119;32;34282;-87
2022/05/31 06:05:07;;;;;;;;;;;;;;;21.89;44.58;99644.66;4362135;32;33297;-88
2022/05/31 06:07:37;;;;;;;;;;;;;;;21.81;45.06;99637.22;4357460;32;33252;-87
2022/05/31 06:10:08;;;;;;;;;;;;;;;21.29;45.94;99641.13;4348385;32;33950;-86
2022/05/31 06:12:37;;;;;;;;;;;;;;;21.36;45.97;99640.75;4352840;32;34457;-87
2022/05/31 06:15:09;;;;;;;;;;;;;;;21.00;47.44;99637.53;4352381;32;32552;-86
2022/05/31 06:17:39;;;;;;;;;;;;;;;20.71;47.37;99640.94;4359703;32;33960;-86
2022/05/31 06:20:11;;;;;;;;;;;;;;;20.75;47.37;99643.34;4348716;32;33823;-88
2022/05/31 06:22:40;;;;;;;;;;;;;;;20.70;47.70;99644.53;4351532;32;33310;-86
2022/05/31 06:25:11;;;;;;;;;;;;;;;20.44;48.25;99647.66;4350833;32;35743;-87
2022/05/31 06:27:41;;;;;;;;;;;;;;;20.51;47.71;99650.78;4348799;32;33362;-87
2022/05/31 06:30:12;;;;;;;;;;;;;;;20.49;46.93;99649.16;4349203;32;34771;-87
2022/05/31 06:32:40;;;;;;;;;;;;;;;20.69;46.80;99645.47;4360622;32;33946;-87
2022/05/31 06:35:09;;;;;;;;;;;;;;;20.75;46.93;99655.66;4348583;32;34164;-87
2022/05/31 06:37:38;;;;;;;;;;;;;;;20.67;47.46;99658.75;4351449;32;33484;-87
2022/05/31 06:40:08;;;;;;;;;;;;;;;20.60;47.29;99665.28;4355461;32;34467;-88
2022/05/31 06:42:40;;;;;;;;;;;;;;;20.51;47.11;99671.03;4353869;32;34870;-88
2022/05/31 06:45:21;;;;;;;;;;;;;;;20.60;46.77;99670.56;4332962;32;788601;-88
2022/05/31 06:47:55;;;;;;;;;;;;;;;20.54;46.61;99669.09;4362760;32;33399;-87
2022/05/31 06:50:26;;;;;;;;;;;;;;;20.43;46.43;99669.66;4353233;32;33494;-87
2022/05/31 06:58:32;;;;;;;;;;;;;;;20.73;46.37;99668.97;4355067;32;33414;-86
2022/05/31 07:01:09;;;;;;;;;;;;;;;20.69;45.99;99664.78;4351121;32;33987;-87
2022/05/31 07:03:37;;;;;;;;;;;;;;;20.40;45.94;99661.91;4361485;32;34133;-86
2022/05/31 07:06:06;;;;;;;;;;;;;;;20.77;44.73;99659.91;4356486;32;33979;-87
2022/05/31 07:08:35;;;;;;;;;;;;;;;20.48;47.25;99658.03;4349356;32;33701;-87
2022/05/31 07:11:07;;;;;;;;;;;;;;;20.37;47.13;99659.47;4349109;32;34002;-87
2022/05/31 07:13:38;;;;;;;;;;;;;;;20.69;45.85;99656.03;4353322;32;33880;-87
2022/05/31 07:16:12;;;;;;;;;;;;;;;20.46;45.43;99666.00;4356072;32;34302;-87
2022/05/31 07:18:45;;;;;;;;;;;;;;;20.87;44.23;99658.47;4352268;32;33943;-86
2022/05/31 07:21:14;;;;;;;;;;;;;;;20.76;45.07;99666.13;4343790;32;34197;-87
2022/05/31 07:23:42;;;;;;;;;;;;;;;20.88;46.22;99657.53;4347938;32;34292;-87
2022/05/31 07:26:12;;;;;;;;;;;;;;;20.73;45.64;99652.25;4348775;32;33971;-87
2022/05/31 07:29:01;;;;;;;;;;;;;;;20.88;45.04;99656.69;4355746;32;34093;-87
2022/05/31 07:31:31;;;;;;;;;;;;;;;21.13;45.30;99661.41;4354786;32;34148;-86
2022/05/31 07:34:00;;;;;;;;;;;;;;;21.09;45.81;99666.03;4360420;32;33632;-87
2022/05/31 07:36:29;;;;;;;;;;;;;;;21.07;45.56;99667.06;4345839;32;33934;-87
2022/05/31 07:38:59;;;;;;;;;;;;;;;21.54;43.37;99667.91;4340165;33;33131;-87
2022/05/31 07:41:32;;;;;;;;;;;;;;;21.35;44.76;99666.31;4340271;33;34635;-88
2022/05/31 07:44:01;;;;;;;;;;;;;;;21.48;44.28;99663.81;4341546;33;34164;-87
2022/05/31 07:46:31;;;;;;;;;;;;;;;21.27;45.17;99666.75;4347617;32;34021;-86
2022/05/31 07:49:00;;;;;;;;;;;;;;;21.64;45.63;99672.53;4341751;33;33107;-87
2022/05/31 07:51:30;;;;;;;;;;;;;;;21.59;43.10;99671.97;4341597;32;33741;-88
2022/05/31 07:54:01;;;;;;;;;;;;;;;21.59;43.65;99679.88;4348187;32;33896;-87
2022/05/31 07:56:33;;;;;;;;;;;;;;;21.76;43.69;99675.41;4355844;32;32599;-86
2022/05/31 07:59:04;;;;;;;;;;;;;;;21.71;43.63;99680.97;4356105;32;32100;-87
2022/05/31 08:01:37;;;;;;;;;;;;;;;22.12;42.66;99680.25;4361806;32;34969;-88
2022/05/31 08:04:07;;;;;;;;;;;;;;;22.16;42.03;99685.25;4356388;32;35072;-87
2022/05/31 08:06:35;;;;;;;;;;;;;;;22.19;42.69;99686.03;4347279;32;33710;-86
2022/05/31 08:09:04;;;;;;;;;;;;;;;22.23;41.47;99684.91;4345259;32;33161;-86
2022/05/31 08:11:33;;;;;;;;;;;;;;;22.39;41.81;99683.00;4342832;33;34876;-86
2022/05/31 08:14:03;;;;;;;;;;;;;;;22.36;41.64;99683.22;4348726;33;34079;-87
2022/05/31 08:16:33;;;;;;;;;;;;;;;22.30;41.93;99692.38;4343326;33;34036;-88
2022/05/31 08:19:03;;;;;;;;;;;;;;;22.23;42.49;99687.53;4354678;32;33326;-86
2022/05/31 08:21:32;;;;;;;;;;;;;;;22.37;42.14;99690.19;4358047;32;33833;-87
2022/05/31 08:24:01;;;;;;;;;;;;;;;22.17;41.97;99691.38;4358339;32;35105;-87
2022/05/31 08:26:50;;;;;;;;;;;;;;;22.51;41.91;99681.41;4358916;32;34442;-86
2022/05/31 08:29:19;;;;;;;;;;;;;;;22.75;41.15;99681.66;4356226;32;33032;-87
2022/05/31 08:31:48;;;;;;;;;;;;;;;22.53;41.93;99690.09;4343605;32;33849;-86
2022/05/31 08:34:18;;;;;;;;;;;;;;;22.80;40.92;99687.50;4343367;33;34361;-88
2022/05/31 08:36:46;;;;;;;;;;;;;;;23.09;41.24;99683.00;4343068;33;34195;-87
2022/05/31 08:39:15;;;;;;;;;;;;;;;23.27;41.02;99688.91;4343076;33;33298;-87
2022/05/31 08:41:44;;;;;;;;;;;;;;;23.31;41.14;99689.53;4357817;32;34171;-86
2022/05/31 08:44:13;;;;;;;;;;;;;;;23.37;40.58;99699.72;4357963;32;34396;-87
2022/05/31 08:46:55;;;;;;;;;;;;;;;23.40;40.99;99694.22;4357990;32;34940;-86
2022/05/31 08:51:52;;;;;;;;;;;;;;;23.54;39.43;99698.59;4357979;32;33327;-88
2022/05/31 08:52:17;;;;;;;;;;;;;;;23.35;40.42;99694.53;4344550;32;34779;-86
2022/05/31 08:57:47;;;;;;;;;;;;;;;23.95;39.80;99687.87;4336371;33;34180;-87
2022/05/31 09:00:18;;;;;;;;;;;;;;;23.91;39.79;99685.53;4346257;33;33444;-88
2022/05/31 09:02:47;;;;;;;;;;;;;;;24.08;39.21;99685.22;4343085;33;33938;-87
2022/05/31 09:05:20;;;;;;;;;;;;;;;24.15;39.26;99691.78;4336514;33;35753;-87
2022/05/31 09:07:49;;;;;;;;;;;;;;;24.32;38.87;99687.97;4328708;33;34244;-87
2022/05/31 09:10:25;;;;;;;;;;;;;;;24.22;38.86;99686.91;4326455;33;34061;-89
2022/05/31 09:12:54;;;;;;;;;;;;;;;24.35;39.88;99684.25;4329807;33;34106;-87
2022/05/31 09:15:25;;;;;;;;;;;;;;;23.99;39.26;99681.44;4331347;33;34301;-86
2022/05/31 09:18:00;;;;;;;;;;;;;;;24.35;38.20;99676.28;4335075;33;34303;-87
2022/05/31 09:20:32;;;;;;;;;;;;;;;24.24;38.34;99674.41;4334815;33;33941;-87
2022/05/31 09:23:03;;;;;;;;;;;;;;;24.18;38.13;99677.47;4334746;33;33992;-87
2022/05/31 09:25:33;;;;;;;;;;;;;;;24.25;38.40;99676.94;4337558;33;33457;-86
2022/05/31 09:28:03;;;;;;;;;;;;;;;24.29;38.73;99677.59;4342157;32;33973;-89
2022/05/31 09:30:34;;;;;;;;;;;;;;;24.09;39.15;99678.12;4358609;32;32777;-86
2022/05/31 09:33:06;;;;;;;;;;;;;;;24.21;39.03;99677.25;4350313;32;33184;-86
2022/05/31 09:35:51;;;;;;;;;;;;;;;24.22;39.37;99682.47;4354043;32;33819;-86
2022/05/31 09:38:51;;;;;;;;;;;;;;;24.24;38.97;99682.38;4351132;32;34803;-88
2022/05/31 09:41:22;;;;;;;;;;;;;;;24.39;38.63;99673.31;4354391;32;33234;-87
2022/05/31 09:43:53;;;;;;;;;;;;;;;24.64;38.59;99671.59;4355954;32;33865;-88
2022/05/31 09:46:24;;;;;;;;;;;;;;;24.57;38.12;99673.84;4355431;32;33732;-87
2022/05/31 09:48:53;;;;;;;;;;;;;;;24.63;39.16;99670.75;4354430;32;34470;-87
2022/05/31 09:51:24;;;;;;;;;;;;;;;24.70;38.01;99672.00;4348609;32;34307;-87
2022/05/31 09:59:30;;;;;;;;;;;;;;;24.82;38.49;99672.94;4350658;32;33211;-88
2022/05/31 10:02:04;;;;;;;;;;;;;;;24.58;38.40;99672.91;4348152;32;31732;-88
2022/05/31 10:04:33;;;;;;;;;;;;;;;24.44;39.02;99668.53;4354939;32;33541;-86
2022/05/31 10:07:03;;;;;;;;;;;;;;;24.66;39.15;99662.56;4356116;32;34652;-87
2022/05/31 10:09:33;;;;;;;;;;;;;;;24.79;38.53;99659.91;4352133;32;32664;-87
2022/05/31 10:12:16;;;;;;;;;;;;;;;24.70;38.64;99656.09;4351437;32;33096;-87
2022/05/31 10:14:45;;;;;;;;;;;;;;;24.96;38.56;99653.34;4354129;32;34828;-89
2022/05/31 10:17:15;;;;;;;;;;;;;;;24.92;37.92;99660.69;4356676;32;34972;-87
2022/05/31 10:19:46;;;;;;;;;;;;;;;25.09;37.55;99659.44;4361889;32;34192;-88
2022/05/31 10:22:15;;;;;;;;;;;;;;;25.04;37.96;99650.97;4356095;32;33385;-88
2022/05/31 10:24:51;;;;;;;;;;;;;;;25.08;37.93;99644.47;4342596;33;33692;-88
2022/05/31 10:27:24;;;;;;;;;;;;;;;25.33;37.78;99642.69;4353721;32;33796;-87
2022/05/31 10:29:59;;;;;;;;;;;;;;;25.58;37.22;99646.12;4357588;32;34144;-89
2022/05/31 10:32:29;;;;;;;;;;;;;;;25.75;36.49;99653.62;4342470;32;33370;-88
2022/05/31 10:35:14;;;;;;;;;;;;;;;25.39;37.18;99650.16;4356387;32;33862;-89
2022/05/31 10:37:55;;;;;;;;;;;;;;;25.53;37.99;99652.63;4351691;32;34923;-87
2022/05/31 10:40:26;;;;;;;;;;;;;;;25.63;36.53;99659.91;4355269;32;33512;-88
2022/05/31 10:42:58;;;;;;;;;;;;;;;25.37;36.08;99648.59;4356663;32;34353;-87
2022/05/31 10:45:27;;;;;;;;;;;;;;;25.53;36.79;99647.31;4356814;32;34948;-87
2022/05/31 10:47:57;;;;;;;;;;;;;;;25.83;36.66;99648.59;4357365;32;34103;-87
2022/05/31 10:50:33;;;;;;;;;;;;;;;25.76;35.82;99650.03;4362173;32;34147;-86
2022/05/31 10:53:07;;;;;;;;;;;;;;;25.71;35.55;99647.72;4354069;32;33386;-86
2022/05/31 10:55:37;;;;;;;;;;;;;;;25.68;35.78;99652.41;4356514;32;34851;-88
2022/05/31 10:58:21;;;;;;;;;;;;;;;25.86;36.08;99658.19;4349929;32;33890;-89
2022/05/31 11:00:52;;;;;;;;;;;;;;;25.61;35.91;99649.38;4346418;32;34726;-87
2022/05/31 11:03:26;;;;;;;;;;;;;;;25.62;35.69;99652.91;4355515;32;34053;-87
2022/05/31 11:06:03;;;;;;;;;;;;;;;25.65;36.53;99644.69;4360110;32;35161;-87
2022/05/31 11:11:30;;;;;;;;;;;;;;;25.57;35.83;99639.97;4351378;32;34171;-87
2022/05/31 11:14:07;;;;;;;;;;;;;;;26.32;34.80;99643.94;4351682;32;32748;-88
2022/05/31 11:16:38;;;;;;;;;;;;;;;26.57;33.84;99640.16;4352976;32;32758;-87
2022/05/31 11:19:11;;;;;;;;;;;;;;;26.57;34.61;99637.50;4355252;32;34969;-90
2022/05/31 11:21:44;;;;;;;;;;;;;;;26.86;34.04;99631.62;4353261;32;33992;-86
2022/05/31 11:24:20;;;;;;;;;;;;;;;26.70;34.46;99635.56;4360142;32;33212;-88
2022/05/31 11:26:55;;;;;;;;;;;;;;;27.14;33.42;99630.22;4354019;32;34591;-90
2022/05/31 11:29:40;;;;;;;;;;;;;;;27.13;32.57;99637.34;4356118;32;33852;-89
2022/05/31 11:32:09;;;;;;;;;;;;;;;27.47;33.63;99623.88;4351179;32;33715;-86
2022/05/31 11:34:41;;;;;;;;;;;;;;;27.63;33.71;99618.09;4367038;32;33507;-88
2022/05/31 11:37:12;;;;;;;;;;;;;;;27.94;31.65;99627.00;4355752;32;33898;-86
2022/05/31 11:39:46;;;;;;;;;;;;;;;27.91;30.94;99610.41;4357907;32;34286;-86
2022/05/31 11:42:18;;;;;;;;;;;;;;;27.87;30.99;99615.19;4356204;32;33707;-87
2022/05/31 11:44:55;;;;;;;;;;;;;;;28.06;31.20;99607.28;4351088;32;33844;-87
2022/05/31 11:47:32;;;;;;;;;;;;;;;28.37;30.92;99617.91;4349685;32;34348;-87
2022/05/31 11:50:04;;;;;;;;;;;;;;;28.24;30.59;99618.13;4345186;32;33915;-88
2022/05/31 11:52:38;;;;;;;;;;;;;;;27.99;30.79;99614.13;4352589;32;32456;-87
2022/05/31 11:55:28;;;;;;;;;;;;;;;27.71;30.81;99612.94;4358961;32;33185;-87
2022/05/31 11:58:04;;;;;;;;;;;;;;;27.44;31.96;99602.84;4358846;32;33926;-88
2022/05/31 12:00:36;;;;;;;;;;;;;;;27.67;32.01;99609.72;4356060;32;34885;-87
2022/05/31 12:03:07;;;;;;;;;;;;;;;27.40;31.19;99610.25;4354589;32;34116;-88
2022/05/31 12:05:37;;;;;;;;;;;;;;;28.07;31.14;99606.28;4353871;32;33123;-87
2022/05/31 12:08:08;;;;;;;;;;;;;;;28.14;31.85;99611.09;4355652;32;34007;-86
2022/05/31 12:10:39;;;;;;;;;;;;;;;27.86;31.85;99608.19;4350821;32;34341;-87
2022/05/31 12:13:08;;;;;;;;;;;;;;;27.89;31.35;99597.22;4357815;32;34959;-87
2022/05/31 12:15:40;;;;;;;;;;;;;;;28.07;31.29;99590.28;4344162;32;33122;-88
2022/05/31 12:18:10;;;;;;;;;;;;;;;27.99;31.57;99583.94;4355174;32;34772;-85
2022/05/31 12:20:38;;;;;;;;;;;;;;;28.13;31.29;99582.75;4355292;32;34114;-85
2022/05/31 12:23:09;;;;;;;;;;;;;;;28.35;30.42;99587.84;4351798;32;34224;-87
2022/05/31 12:25:38;;;;;;;;;;;;;;;28.39;30.58;99586.59;4358595;32;33676;-87
2022/05/31 12:28:08;;;;;;;;;;;;;;;27.83;30.34;99582.59;4353846;32;34038;-86
2022/05/31 12:30:43;;;;;;;;;;;;;;;27.64;30.50;99580.66;4353307;32;33702;-87
2022/05/31 12:33:42;;;;;;;;;;;;;;;28.12;30.43;99573.03;4353619;32;34190;-86
2022/05/31 12:36:11;;;;;;;;;;;;;;;28.70;30.35;99570.50;4353977;32;33358;-87
2022/05/31 12:39:01;;;;;;;;;;;;;;;28.59;30.04;99568.00;4353027;32;33347;-86
2022/05/31 12:41:33;;;;;;;;;;;;;;;29.16;29.08;99560.13;4355768;32;34220;-88
2022/05/31 12:44:02;;;;;;;;;;;;;;;29.59;30.67;99562.28;4354145;32;33946;-87
2022/05/31 12:46:36;;;;;;;;;;;;;;;29.65;29.03;99567.06;4353332;32;33511;-89
2022/05/31 12:49:06;;;;;;;;;;;;;;;29.69;28.72;99557.78;4353297;32;35001;-86
2022/05/31 12:51:35;;;;;;;;;;;;;;;29.59;28.46;99556.94;4349475;32;33136;-88
2022/05/31 12:54:08;;;;;;;;;;;;;;;29.75;28.97;99557.22;4352844;32;34017;-89
2022/05/31 12:56:41;;;;;;;;;;;;;;;29.82;29.22;99556.59;4351871;32;33511;-87
2022/05/31 12:59:09;;;;;;;;;;;;;;;29.27;29.13;99551.97;4355588;32;33316;-88
2022/05/31 13:01:44;;;;;;;;;;;;;;;29.93;29.21;99551.91;4354889;32;33860;-87
2022/05/31 13:04:21;;;;;;;;;;;;;;;30.22;28.51;99547.41;4348459;32;34057;-89
2022/05/31 13:07:20;;;;;;;;;;;;;;;30.17;28.32;99550.53;4357256;32;34045;-87
2022/05/31 13:09:49;;;;;;;;;;;;;;;30.66;27.64;99539.53;4354631;32;34177;-86
2022/05/31 13:21:10;;;;;;;;;;;;;;;31.37;26.80;99534.09;4356432;32;34134;-86
2022/05/31 13:23:59;;;;;;;;;;;;;;;31.49;25.93;99523.97;4354675;32;34148;-87
2022/05/31 13:26:30;;;;;;;;;;;;;;;31.55;26.53;99530.53;4353240;32;34469;-87
2022/05/31 13:29:00;;;;;;;;;;;;;;;31.65;25.90;99518.72;4356781;32;33061;-87
2022/05/31 13:31:29;;;;;;;;;;;;;;;31.71;25.76;99509.16;4356682;32;33969;-86
2022/05/31 13:34:00;;;;;;;;;;;;;;;31.81;25.81;99511.72;4351430;32;32737;-87
2022/05/31 13:36:29;;;;;;;;;;;;;;;31.95;24.45;99510.31;4353448;32;34722;-87
2022/05/31 13:38:59;;;;;;;;;;;;;;;31.82;24.93;99505.34;4360730;32;33259;-87
2022/05/31 13:41:28;;;;;;;;;;;;;;;31.83;25.00;99501.69;4356341;32;34964;-87
2022/05/31 13:43:57;;;;;;;;;;;;;;;31.74;24.87;99508.84;4355828;32;34161;-87